Terminal Aerodrome Forecast
Issued by NWS Duluth, MN

Home | Current Version | Previous Version | Text Only | Print | Product List | Glossary On
Versions: 1 2 3 4 5 6 7 8 9 10 11 12 13 14
000
FTUS43 KDLH 052300 RRA
TAFINL
TAF
KINL 052341Z 0600/0624 17008KT P6SM SCT100
     FM061700 14009KT P6SM SCT030 BKN060
     FM062000 16011KT P6SM -SHRA BKN025 OVC050=

USA.gov is the U.S. government's official web portal to all federal, state and local government web resources and services.